createdAt,value
2023-05-21T00:01:07.515Z,26.26
2023-05-21T00:03:36.502Z,26.38
2023-05-21T00:06:03.813Z,25.65
2023-05-21T00:08:30.991Z,25.35
2023-05-21T00:10:57.596Z,25.68
2023-05-21T00:13:24.170Z,25.96
2023-05-21T00:15:51.104Z,26.03
2023-05-21T00:18:18.159Z,26.23
2023-05-21T00:20:45.676Z,26.17
2023-05-21T00:23:12.348Z,25.83
2023-05-21T00:25:39.071Z,26.21
2023-05-21T00:28:05.788Z,25.89
2023-05-21T00:30:32.339Z,25.76
2023-05-21T00:33:02.399Z,25.60
2023-05-21T00:35:29.394Z,26.24
2023-05-21T00:37:56.468Z,26.20
2023-05-21T00:40:23.643Z,26.23
2023-05-21T00:42:50.321Z,26.28
2023-05-21T00:45:16.921Z,25.44
2023-05-21T00:47:44.180Z,25.86
2023-05-21T00:50:12.214Z,25.54
2023-05-21T00:52:42.214Z,26.10
2023-05-21T00:55:10.017Z,25.75
2023-05-21T00:57:37.261Z,25.16
2023-05-21T01:00:07.247Z,24.98
2023-05-21T01:02:34.757Z,24.91
2023-05-21T01:05:04.137Z,25.88
2023-05-21T01:07:30.727Z,25.45
2023-05-21T01:09:57.709Z,26.24
2023-05-21T01:12:24.438Z,24.88
2023-05-21T01:14:52.156Z,25.61
2023-05-21T01:17:20.739Z,25.77
2023-05-21T01:19:47.877Z,26.01
2023-05-21T01:22:16.914Z,25.28
2023-05-21T01:24:48.001Z,25.13
2023-05-21T01:27:14.624Z,25.26
2023-05-21T01:29:41.644Z,25.38
2023-05-21T01:32:29.114Z,25.64
2023-05-21T01:35:11.152Z,25.62
2023-05-21T01:37:46.171Z,25.45
2023-05-21T01:40:35.791Z,25.75
2023-05-21T01:43:05.682Z,25.50
2023-05-21T01:45:36.755Z,25.22
2023-05-21T01:48:05.863Z,25.12
2023-05-21T01:50:33.838Z,24.91
2023-05-21T01:53:05.772Z,25.48
2023-05-21T01:55:32.708Z,25.05
2023-05-21T01:58:02.379Z,25.08
2023-05-21T02:00:29.514Z,25.87
2023-05-21T02:02:56.507Z,26.38
2023-05-21T02:05:23.774Z,26.25
2023-05-21T02:07:51.983Z,25.35
2023-05-21T02:10:19.346Z,24.21
2023-05-21T02:12:46.217Z,25.77
2023-05-21T02:15:14.227Z,25.96
2023-05-21T02:17:42.505Z,25.21
2023-05-21T02:20:12.478Z,25.83
2023-05-21T02:22:42.401Z,26.17
2023-05-21T02:25:10.183Z,25.95
2023-05-21T02:27:37.739Z,25.59
2023-05-21T02:30:06.832Z,25.61
2023-05-21T02:32:34.049Z,25.51
2023-05-21T02:35:03.526Z,25.54
2023-05-21T02:37:34.759Z,25.88
2023-05-21T02:40:06.261Z,25.97
2023-05-21T02:42:33.975Z,25.14
2023-05-21T02:45:00.646Z,26.14
2023-05-21T02:47:28.789Z,25.32
2023-05-21T02:49:55.801Z,25.40
2023-05-21T02:52:23.855Z,25.57
2023-05-21T02:54:52.051Z,24.66
2023-05-21T02:57:18.721Z,25.74
2023-05-21T02:59:46.012Z,25.38
2023-05-21T03:02:12.673Z,25.77
2023-05-21T03:04:46.754Z,25.12
2023-05-21T03:07:14.601Z,25.57
2023-05-21T03:09:42.181Z,25.22
2023-05-21T03:12:09.593Z,25.24
2023-05-21T03:14:36.566Z,25.54
2023-05-21T03:17:05.887Z,25.12
2023-05-21T03:19:36.727Z,25.18
2023-05-21T03:22:04.918Z,25.35
2023-05-21T03:24:35.175Z,25.40
2023-05-21T03:27:06.261Z,25.62
2023-05-21T03:29:33.798Z,25.79
2023-05-21T03:32:02.921Z,25.17
2023-05-21T03:34:31.058Z,25.31
2023-05-21T03:36:58.238Z,24.96
2023-05-21T03:39:26.053Z,25.58
2023-05-21T03:41:54.287Z,25.38
2023-05-21T03:44:32.287Z,25.63
2023-05-21T03:47:11.796Z,26.18
2023-05-21T03:49:38.789Z,25.89
2023-05-21T03:52:06.470Z,26.31
2023-05-21T03:54:33.704Z,26.21
2023-05-21T03:57:04.927Z,26.47
2023-05-21T03:59:32.567Z,25.82
2023-05-21T04:02:00.252Z,25.10
2023-05-21T04:04:29.290Z,25.39
2023-05-21T04:06:56.633Z,25.85
2023-05-21T04:09:23.203Z,25.65
2023-05-21T04:11:51.852Z,25.64
2023-05-21T04:14:18.857Z,25.68
2023-05-21T04:16:45.838Z,25.92
2023-05-21T04:19:12.527Z,26.18
2023-05-21T04:21:40.335Z,26.61
2023-05-21T04:24:07.676Z,26.72
2023-05-21T04:27:01.200Z,26.68
2023-05-21T04:29:31.408Z,26.69
2023-05-21T04:31:58.078Z,27.16
2023-05-21T04:34:24.807Z,27.00
2023-05-21T04:36:51.985Z,27.51
2023-05-21T04:39:19.009Z,27.63
2023-05-21T04:41:45.640Z,27.39
2023-05-21T04:44:14.729Z,27.35
2023-05-21T04:46:45.967Z,27.73
2023-05-21T04:49:12.694Z,27.29
2023-05-21T04:51:39.917Z,27.01
2023-05-21T04:54:06.662Z,26.24
2023-05-21T04:56:34.635Z,26.47
2023-05-21T04:59:04.671Z,25.94
2023-05-21T05:01:35.117Z,26.47
2023-05-21T05:04:01.979Z,25.93
2023-05-21T05:06:29.096Z,26.05
2023-05-21T05:08:55.747Z,25.35
2023-05-21T05:11:23.424Z,26.22
2023-05-21T05:13:52.348Z,26.24
2023-05-21T05:16:24.953Z,26.90
2023-05-21T05:18:52.670Z,27.02
2023-05-21T05:21:20.356Z,26.72
2023-05-21T05:23:47.829Z,26.90
2023-05-21T05:26:14.490Z,27.46
2023-05-21T05:28:41.717Z,27.60
2023-05-21T05:31:08.852Z,28.41
2023-05-21T05:33:35.599Z,28.27
2023-05-21T05:36:02.276Z,29.07
2023-05-21T05:38:30.051Z,29.74
2023-05-21T05:40:56.700Z,29.53
2023-05-21T05:43:25.549Z,30.03
2023-05-21T05:45:52.880Z,29.66
2023-05-21T05:48:19.934Z,29.61
2023-05-21T05:50:47.455Z,29.83
2023-05-21T05:53:14.682Z,29.73
2023-05-21T05:55:41.381Z,30.46
2023-05-21T05:58:08.037Z,31.55
2023-05-21T06:00:47.708Z,30.18
2023-05-21T06:03:14.562Z,30.15
2023-05-21T06:05:42.395Z,30.77
2023-05-21T06:08:09.009Z,30.89
2023-05-21T06:10:35.575Z,30.67
2023-05-21T06:13:03.551Z,30.61
2023-05-21T06:15:30.354Z,30.44
2023-05-21T06:17:57.076Z,30.56
2023-05-21T06:20:23.769Z,31.16
2023-05-21T06:22:50.720Z,31.01
2023-05-21T06:25:18.250Z,32.47
2023-05-21T06:27:45.007Z,33.90
2023-05-21T06:30:18.410Z,34.86
2023-05-21T06:32:45.176Z,35.05
2023-05-21T06:35:12.301Z,35.93
2023-05-21T06:37:38.942Z,36.67
2023-05-21T06:40:06.572Z,36.69
2023-05-21T06:42:33.575Z,36.28
2023-05-21T06:45:19.053Z,38.57
2023-05-21T06:47:46.156Z,38.86
2023-05-21T06:50:13.332Z,38.73
2023-05-21T06:52:40.192Z,39.48
2023-05-21T06:55:07.561Z,39.43
2023-05-21T06:57:54.374Z,40.12
2023-05-21T07:00:21.265Z,40.61
2023-05-21T07:02:48.544Z,40.47
2023-05-21T07:05:15.915Z,36.89
2023-05-21T07:07:42.566Z,36.51
2023-05-21T07:10:10.351Z,35.79
2023-05-21T07:12:38.209Z,35.67
2023-05-21T07:15:05.123Z,35.50
2023-05-21T07:17:31.963Z,35.44
2023-05-21T07:19:58.555Z,36.07
2023-05-21T07:22:28.108Z,36.27
2023-05-21T07:24:55.161Z,35.65
2023-05-21T07:27:25.675Z,35.04
2023-05-21T07:29:54.761Z,33.78
2023-05-21T07:32:21.723Z,34.12
2023-05-21T07:34:48.549Z,34.18
2023-05-21T07:37:15.639Z,33.99
2023-05-21T07:39:42.198Z,34.17
2023-05-21T07:42:09.831Z,33.07
2023-05-21T07:44:36.475Z,34.26
2023-05-21T07:47:03.183Z,35.07
2023-05-21T07:49:30.074Z,34.64
2023-05-21T07:51:57.609Z,35.85
2023-05-21T07:54:24.600Z,36.62
2023-05-21T07:56:51.247Z,35.93
2023-05-21T07:59:44.084Z,35.86
2023-05-21T08:02:11.503Z,35.81
2023-05-21T08:04:41.018Z,35.58
2023-05-21T08:07:09.646Z,35.55
2023-05-21T08:09:36.615Z,35.50
2023-05-21T08:12:03.370Z,35.03
2023-05-21T08:14:30.370Z,35.89
2023-05-21T08:16:57.179Z,35.63
2023-05-21T08:19:23.936Z,35.59
2023-05-21T08:21:52.849Z,35.49
2023-05-21T08:24:20.962Z,35.85
2023-05-21T08:26:49.806Z,34.95
2023-05-21T08:29:16.714Z,35.65
2023-05-21T08:31:43.372Z,35.89
2023-05-21T08:34:10.376Z,34.82
2023-05-21T08:36:48.300Z,34.62
2023-05-21T08:39:35.151Z,34.43
2023-05-21T08:42:32.781Z,33.86
2023-05-21T08:45:06.636Z,33.93
2023-05-21T08:47:36.311Z,33.69
2023-05-21T08:50:05.762Z,34.18
2023-05-21T08:52:32.461Z,35.18
2023-05-21T08:55:00.267Z,35.03
2023-05-21T08:57:28.101Z,35.17
2023-05-21T08:59:55.882Z,35.21
2023-05-21T09:02:26.548Z,35.61
2023-05-21T09:04:57.273Z,35.71
2023-05-21T09:07:29.035Z,35.81
2023-05-21T09:10:14.893Z,36.52
2023-05-21T09:12:42.297Z,37.28
2023-05-21T09:15:10.291Z,37.22
2023-05-21T09:17:38.165Z,37.56
2023-05-21T09:20:25.771Z,36.94
2023-05-21T09:22:56.925Z,36.73
2023-05-21T09:25:28.130Z,37.31
2023-05-21T09:27:56.951Z,37.43
2023-05-21T09:30:26.818Z,37.65
2023-05-21T09:32:57.541Z,37.45
2023-05-21T09:35:24.927Z,36.84
2023-05-21T09:37:53.247Z,38.03
2023-05-21T09:40:22.612Z,38.63
2023-05-21T09:42:55.001Z,39.23
2023-05-21T09:45:23.479Z,38.99
2023-05-21T09:47:53.735Z,38.48
2023-05-21T09:50:31.430Z,37.57
2023-05-21T09:52:58.457Z,35.71
2023-05-21T09:55:26.962Z,36.22
2023-05-21T09:57:53.595Z,36.43
2023-05-21T10:00:25.472Z,37.00
2023-05-21T10:03:01.196Z,36.60
2023-05-21T10:05:29.787Z,36.25
2023-05-21T10:08:04.495Z,36.98
2023-05-21T10:10:32.767Z,36.24
2023-05-21T10:13:09.293Z,36.95
2023-05-21T10:15:43.646Z,36.35
2023-05-21T10:18:12.347Z,36.66
2023-05-21T10:20:39.865Z,37.52
2023-05-21T10:23:07.707Z,36.61
2023-05-21T10:25:34.996Z,36.43
2023-05-21T10:28:02.952Z,36.54
2023-05-21T10:30:29.970Z,37.66
2023-05-21T10:32:58.459Z,36.50
2023-05-21T10:35:25.868Z,37.57
2023-05-21T10:37:54.089Z,37.32
2023-05-21T10:40:20.914Z,37.50
2023-05-21T10:43:21.036Z,38.68
2023-05-21T10:46:11.623Z,38.10
2023-05-21T10:48:44.732Z,38.25
2023-05-21T10:51:26.427Z,37.26
2023-05-21T10:54:27.345Z,37.65
2023-05-21T10:57:30.424Z,37.95
2023-05-21T10:59:58.321Z,39.32
2023-05-21T11:02:27.203Z,38.32
2023-05-21T11:05:01.186Z,38.39
2023-05-21T11:07:56.703Z,38.68
2023-05-21T11:10:39.313Z,38.51
2023-05-21T11:13:14.033Z,38.74
2023-05-21T11:16:05.122Z,38.72
2023-05-21T11:18:37.905Z,39.69
2023-05-21T11:21:06.310Z,38.42
2023-05-21T11:23:51.362Z,38.60
2023-05-21T11:26:26.378Z,38.67
2023-05-21T11:29:05.453Z,38.65
2023-05-21T11:31:38.202Z,39.20
2023-05-21T11:34:10.969Z,39.89
2023-05-21T11:36:38.864Z,39.89
2023-05-21T11:39:14.025Z,39.29
2023-05-21T11:42:04.183Z,39.09
2023-05-21T11:44:49.205Z,38.35
2023-05-21T11:47:18.211Z,39.40
2023-05-21T11:49:46.104Z,39.24
2023-05-21T11:52:14.179Z,38.18
2023-05-21T11:54:46.178Z,38.89
2023-05-21T11:57:17.430Z,38.69
2023-05-21T11:59:44.951Z,39.27
2023-05-21T12:02:18.957Z,38.93
2023-05-21T12:04:50.598Z,39.58
2023-05-21T12:07:20.612Z,39.92
2023-05-21T12:09:49.426Z,39.89
2023-05-21T12:12:18.159Z,39.10
2023-05-21T12:14:49.056Z,38.28
2023-05-21T12:17:17.758Z,38.41
2023-05-21T12:19:46.158Z,37.67
2023-05-21T12:22:13.052Z,38.48
2023-05-21T12:24:39.943Z,38.32
2023-05-21T12:27:09.734Z,39.58
2023-05-21T12:29:38.747Z,39.14
2023-05-21T12:32:08.681Z,39.40
2023-05-21T12:34:38.913Z,39.10
2023-05-21T12:37:07.734Z,39.04
2023-05-21T12:39:48.237Z,38.36
2023-05-21T12:42:15.425Z,38.65
2023-05-21T12:44:47.449Z,39.32
2023-05-21T12:47:14.266Z,39.46
2023-05-21T12:49:46.084Z,39.93
2023-05-21T12:52:13.498Z,40.31
2023-05-21T12:54:43.173Z,39.59
2023-05-21T12:57:20.060Z,39.85
2023-05-21T12:59:50.041Z,39.94
2023-05-21T13:02:18.679Z,40.05
2023-05-21T13:04:45.487Z,40.21
2023-05-21T13:07:12.683Z,40.23
2023-05-21T13:09:39.277Z,39.80
2023-05-21T13:12:06.239Z,40.09
2023-05-21T13:14:32.855Z,39.35
2023-05-21T13:16:59.617Z,39.82
2023-05-21T13:19:26.822Z,40.12
2023-05-21T13:21:53.704Z,39.75
2023-05-21T13:24:20.299Z,39.73
2023-05-21T13:26:47.292Z,39.17
2023-05-21T13:29:17.426Z,39.00
2023-05-21T13:31:44.413Z,39.81
2023-05-21T13:34:12.326Z,39.38
2023-05-21T13:36:39.837Z,39.23
2023-05-21T13:39:06.819Z,39.20
2023-05-21T13:41:33.701Z,40.30
2023-05-21T13:44:00.350Z,41.11
2023-05-21T13:46:27.426Z,40.50
2023-05-21T13:48:54.030Z,41.07
2023-05-21T13:51:37.521Z,40.56
2023-05-21T13:54:05.076Z,39.40
2023-05-21T13:56:34.004Z,39.44
2023-05-21T13:59:01.505Z,40.38
2023-05-21T14:01:28.472Z,39.89
2023-05-21T14:03:55.233Z,39.74
2023-05-21T14:06:22.226Z,40.00
2023-05-21T14:08:48.884Z,40.30
2023-05-21T14:11:15.750Z,40.79
2023-05-21T14:13:42.320Z,40.42
2023-05-21T14:16:09.083Z,39.47
2023-05-21T14:18:35.869Z,40.00
2023-05-21T14:21:02.456Z,39.06
2023-05-21T14:23:29.058Z,38.69
2023-05-21T14:25:55.900Z,39.06
2023-05-21T14:28:22.456Z,39.46
2023-05-21T14:30:49.655Z,39.27
2023-05-21T14:33:16.288Z,39.59
2023-05-21T14:35:44.255Z,39.69
2023-05-21T14:38:11.068Z,40.75
2023-05-21T14:40:38.097Z,39.88
2023-05-21T14:43:05.660Z,40.14
2023-05-21T14:45:35.736Z,39.85
2023-05-21T14:48:08.219Z,40.35
2023-05-21T14:50:35.843Z,41.04
2023-05-21T14:53:10.668Z,40.86
2023-05-21T14:55:41.594Z,40.68
2023-05-21T14:58:08.934Z,40.02
2023-05-21T15:00:37.187Z,40.07
2023-05-21T15:03:05.151Z,39.15
2023-05-21T15:05:32.473Z,40.18
2023-05-21T15:07:59.446Z,40.10
2023-05-21T15:10:27.708Z,39.38
2023-05-21T15:12:54.684Z,40.29
2023-05-21T15:15:21.750Z,39.29
2023-05-21T15:17:49.619Z,39.67
2023-05-21T15:20:17.530Z,39.35
2023-05-21T15:22:46.035Z,39.79
2023-05-21T15:25:13.220Z,40.52
2023-05-21T15:27:39.951Z,40.28
2023-05-21T15:30:07.193Z,40.29
2023-05-21T15:32:34.289Z,39.88
2023-05-21T15:35:01.385Z,39.88
2023-05-21T15:37:31.971Z,40.14
2023-05-21T15:39:58.846Z,40.19
2023-05-21T15:42:25.802Z,39.49
2023-05-21T15:44:52.499Z,39.36
2023-05-21T15:47:19.999Z,39.79
2023-05-21T15:49:46.748Z,40.70
2023-05-21T15:52:13.504Z,40.51
2023-05-21T15:54:40.273Z,40.54
2023-05-21T15:57:07.469Z,40.17
2023-05-21T15:59:34.551Z,40.11
2023-05-21T16:02:01.956Z,39.77
2023-05-21T16:04:28.690Z,39.30
2023-05-21T16:06:55.896Z,39.04
2023-05-21T16:09:22.652Z,39.57
2023-05-21T16:11:49.393Z,38.92
2023-05-21T16:14:16.122Z,39.80
2023-05-21T16:16:43.176Z,39.68
2023-05-21T16:19:09.961Z,39.60
2023-05-21T16:21:36.723Z,40.02
2023-05-21T16:24:04.003Z,40.11
2023-05-21T16:26:30.711Z,40.28
2023-05-21T16:28:58.843Z,40.18
2023-05-21T16:31:25.887Z,40.18
2023-05-21T16:33:54.329Z,40.08
2023-05-21T16:36:21.128Z,39.89
2023-05-21T16:38:47.836Z,39.93
2023-05-21T16:41:14.770Z,38.56
2023-05-21T16:43:42.667Z,38.75
2023-05-21T16:46:10.678Z,39.64
2023-05-21T16:48:39.288Z,39.04
2023-05-21T16:51:06.055Z,38.74
2023-05-21T16:53:32.755Z,39.40
2023-05-21T16:55:59.474Z,39.38
2023-05-21T16:58:26.536Z,39.10
2023-05-21T17:00:53.245Z,39.09
2023-05-21T17:03:20.177Z,38.47
2023-05-21T17:05:46.994Z,38.34
2023-05-21T17:08:13.766Z,38.19
2023-05-21T17:10:40.593Z,38.95
2023-05-21T17:13:20.849Z,38.43
2023-05-21T17:15:50.741Z,39.28
2023-05-21T17:18:17.809Z,39.42
2023-05-21T17:20:44.860Z,39.76
2023-05-21T17:23:12.092Z,39.55
2023-05-21T17:25:40.197Z,39.69
2023-05-21T17:28:07.330Z,39.50
2023-05-21T17:30:34.418Z,39.60
2023-05-21T17:33:03.531Z,40.20
2023-05-21T17:35:30.494Z,40.30
2023-05-21T17:37:57.294Z,39.87
2023-05-21T17:40:24.898Z,39.46
2023-05-21T17:42:52.772Z,39.33
2023-05-21T17:45:19.956Z,38.76
2023-05-21T17:47:46.679Z,39.07
2023-05-21T17:50:13.527Z,38.32
2023-05-21T17:52:40.324Z,38.79
2023-05-21T17:55:07.794Z,38.61
2023-05-21T17:57:36.003Z,38.73
2023-05-21T18:00:05.065Z,38.65
2023-05-21T18:02:38.956Z,39.23
2023-05-21T18:05:08.949Z,39.29
2023-05-21T18:07:36.898Z,38.65
2023-05-21T18:10:03.843Z,38.99
2023-05-21T18:12:30.655Z,38.41
2023-05-21T18:14:57.577Z,38.88
2023-05-21T18:17:24.437Z,38.78
2023-05-21T18:19:51.231Z,38.93
2023-05-21T18:22:18.452Z,38.47
2023-05-21T18:24:46.196Z,38.62
2023-05-21T18:27:13.481Z,38.44
2023-05-21T18:29:40.494Z,38.24
2023-05-21T18:32:07.864Z,38.16
2023-05-21T18:34:34.754Z,38.78
2023-05-21T18:37:01.675Z,38.70
2023-05-21T18:39:28.959Z,38.53
2023-05-21T18:42:11.411Z,38.43
2023-05-21T18:44:41.765Z,38.19
2023-05-21T18:47:08.552Z,38.39
2023-05-21T18:49:36.093Z,38.26
2023-05-21T18:52:04.285Z,38.41
2023-05-21T18:54:31.422Z,38.64
2023-05-21T18:57:02.462Z,38.71
2023-05-21T18:59:29.297Z,38.55
2023-05-21T19:01:56.132Z,37.98
2023-05-21T19:04:23.212Z,38.29
2023-05-21T19:06:50.214Z,38.34
2023-05-21T19:09:17.248Z,37.66
2023-05-21T19:11:44.058Z,38.17
2023-05-21T19:14:10.875Z,38.08
2023-05-21T19:16:37.738Z,37.91
2023-05-21T19:19:05.862Z,37.80
2023-05-21T19:21:33.099Z,37.29
2023-05-21T19:23:59.851Z,37.53
2023-05-21T19:26:26.799Z,37.29
2023-05-21T19:28:54.633Z,37.31
2023-05-21T19:31:22.534Z,37.23
2023-05-21T19:33:49.509Z,37.45
2023-05-21T19:36:16.473Z,37.21
2023-05-21T19:38:48.193Z,37.18
2023-05-21T19:41:18.963Z,37.08
2023-05-21T19:43:46.160Z,36.51
2023-05-21T19:46:14.323Z,36.98
2023-05-21T19:48:42.064Z,36.60
2023-05-21T19:51:08.895Z,36.52
2023-05-21T19:53:36.128Z,36.52
2023-05-21T19:56:02.889Z,36.31
2023-05-21T19:58:30.364Z,36.07
2023-05-21T20:01:00.378Z,36.20
2023-05-21T20:03:28.117Z,35.47
2023-05-21T20:05:54.997Z,36.06
2023-05-21T20:08:22.269Z,35.94
2023-05-21T20:10:51.773Z,36.28
2023-05-21T20:13:19.532Z,35.70
2023-05-21T20:15:47.666Z,35.92
2023-05-21T20:18:15.266Z,35.92
2023-05-21T20:20:43.263Z,35.55
2023-05-21T20:23:10.408Z,35.15
2023-05-21T20:25:37.684Z,35.46
2023-05-21T20:28:05.236Z,35.39
2023-05-21T20:30:34.457Z,35.47
2023-05-21T20:33:04.706Z,34.90
2023-05-21T20:35:31.477Z,34.75
2023-05-21T20:37:58.842Z,34.58
2023-05-21T20:40:26.090Z,34.28
2023-05-21T20:42:53.931Z,34.95
2023-05-21T20:45:21.913Z,34.70
2023-05-21T20:47:49.705Z,34.80
2023-05-21T20:50:18.007Z,34.78
2023-05-21T20:52:47.133Z,35.01
2023-05-21T20:55:14.600Z,34.98
2023-05-21T20:57:41.837Z,34.85
2023-05-21T21:00:11.302Z,35.04
2023-05-21T21:02:38.824Z,34.97
2023-05-21T21:05:06.063Z,35.02
2023-05-21T21:07:34.082Z,35.14
2023-05-21T21:10:01.461Z,34.95
2023-05-21T21:12:28.450Z,35.33
2023-05-21T21:14:55.375Z,35.47
2023-05-21T21:17:22.109Z,35.62
2023-05-21T21:19:48.811Z,35.48
2023-05-21T21:22:16.135Z,34.98
2023-05-21T21:24:42.824Z,34.65
2023-05-21T21:27:09.451Z,35.19
2023-05-21T21:29:36.225Z,35.37
2023-05-21T21:32:02.858Z,35.16
2023-05-21T21:34:29.865Z,35.03
2023-05-21T21:36:56.463Z,34.46
2023-05-21T21:39:23.123Z,34.99
2023-05-21T21:41:49.757Z,34.76
2023-05-21T21:44:16.346Z,34.77
2023-05-21T21:46:42.906Z,34.34
2023-05-21T21:49:09.471Z,34.72
2023-05-21T21:51:37.179Z,34.59
2023-05-21T21:54:04.049Z,34.72
2023-05-21T21:56:31.408Z,34.37
2023-05-21T21:58:57.951Z,34.72
2023-05-21T22:01:24.947Z,34.13
2023-05-21T22:03:51.547Z,34.19
2023-05-21T22:06:18.225Z,34.50
2023-05-21T22:08:44.917Z,34.20
2023-05-21T22:11:11.727Z,34.71
2023-05-21T22:13:41.468Z,34.98
2023-05-21T22:16:08.089Z,34.22
2023-05-21T22:18:40.073Z,34.64
2023-05-21T22:21:09.538Z,34.30
2023-05-21T22:23:38.222Z,33.82
2023-05-21T22:26:04.946Z,34.32
2023-05-21T22:28:31.546Z,33.68
2023-05-21T22:30:58.964Z,33.91
2023-05-21T22:33:26.599Z,34.08
2023-05-21T22:35:54.139Z,34.39
2023-05-21T22:38:20.901Z,34.72
2023-05-21T22:40:47.965Z,34.59
2023-05-21T22:43:14.658Z,34.63
2023-05-21T22:45:41.233Z,34.46
2023-05-21T22:48:09.462Z,33.61
2023-05-21T22:50:38.839Z,33.72
2023-05-21T22:53:06.816Z,33.80
2023-05-21T22:55:33.441Z,33.59
2023-05-21T22:58:00.098Z,33.28
2023-05-21T23:00:27.580Z,33.33
2023-05-21T23:02:54.906Z,34.20
2023-05-21T23:05:22.591Z,34.21
2023-05-21T23:07:49.669Z,33.73
2023-05-21T23:10:16.569Z,33.81
2023-05-21T23:12:43.301Z,33.89
2023-05-21T23:15:10.667Z,33.98
2023-05-21T23:17:37.872Z,34.85
2023-05-21T23:20:06.002Z,33.65
2023-05-21T23:22:32.735Z,34.23
2023-05-21T23:24:59.333Z,34.30
2023-05-21T23:27:25.897Z,34.10
2023-05-21T23:29:52.455Z,34.30
2023-05-21T23:32:19.259Z,34.00
2023-05-21T23:34:46.704Z,34.22
2023-05-21T23:37:13.293Z,33.64
2023-05-21T23:39:39.927Z,33.52
2023-05-21T23:42:06.757Z,33.31
2023-05-21T23:44:33.347Z,33.20
2023-05-21T23:46:59.954Z,33.68
2023-05-21T23:49:26.569Z,34.09
2023-05-21T23:51:53.751Z,33.93
2023-05-21T23:54:20.364Z,34.34
2023-05-21T23:56:46.975Z,33.49
2023-05-21T23:59:15.107Z,33.56
